sensor_id;sensor_type;location;lat;lon;timestamp;P1;P2;P0
60816;PMS5003;51921;51.518;-3.188;2022-11-04T00:01:52;6;4;
60816;PMS5003;51921;51.518;-3.188;2022-11-04T00:04:18;4;4;
60816;PMS5003;51921;51.518;-3.188;2022-11-04T00:06:43;5;5;
60816;PMS5003;51921;51.518;-3.188;2022-11-04T00:09:11;3;3;
60816;PMS5003;51921;51.518;-3.188;2022-11-04T00:11:34;5;5;
60816;PMS5003;51921;51.518;-3.188;2022-11-04T00:13:59;3;3;
60816;PMS5003;51921;51.518;-3.188;2022-11-04T00:16:25;4;4;
60816;PMS5003;51921;51.518;-3.188;2022-11-04T00:18:50;5;5;
60816;PMS5003;51921;51.518;-3.188;2022-11-04T00:21:16;5;4;
60816;PMS5003;51921;51.518;-3.188;2022-11-04T00:23:42;5;4;
60816;PMS5003;51921;51.518;-3.188;2022-11-04T00:26:07;5;5;
60816;PMS5003;51921;51.518;-3.188;2022-11-04T00:28:33;6;5;
60816;PMS5003;51921;51.518;-3.188;2022-11-04T00:30:59;6;6;
60816;PMS5003;51921;51.518;-3.188;2022-11-04T00:33:24;5;5;
60816;PMS5003;51921;51.518;-3.188;2022-11-04T00:35:50;6;6;
60816;PMS5003;51921;51.518;-3.188;2022-11-04T00:38:15;7;6;
60816;PMS5003;51921;51.518;-3.188;2022-11-04T00:40:41;5;5;
60816;PMS5003;51921;51.518;-3.188;2022-11-04T00:43:06;7;6;
60816;PMS5003;51921;51.518;-3.188;2022-11-04T00:45:32;9;8;
60816;PMS5003;51921;51.518;-3.188;2022-11-04T00:47:57;8;7;
60816;PMS5003;51921;51.518;-3.188;2022-11-04T00:50:23;9;7;
60816;PMS5003;51921;51.518;-3.188;2022-11-04T00:52:49;6;6;
60816;PMS5003;51921;51.518;-3.188;2022-11-04T00:55:14;8;7;
60816;PMS5003;51921;51.518;-3.188;2022-11-04T00:57:41;6;6;
60816;PMS5003;51921;51.518;-3.188;2022-11-04T01:00:06;6;6;
60816;PMS5003;51921;51.518;-3.188;2022-11-04T01:02:31;7;7;
60816;PMS5003;51921;51.518;-3.188;2022-11-04T01:04:56;5;5;
60816;PMS5003;51921;51.518;-3.188;2022-11-04T01:07:22;6;6;
60816;PMS5003;51921;51.518;-3.188;2022-11-04T01:09:48;6;6;
60816;PMS5003;51921;51.518;-3.188;2022-11-04T01:12:13;8;7;
60816;PMS5003;51921;51.518;-3.188;2022-11-04T01:14:39;6;6;
60816;PMS5003;51921;51.518;-3.188;2022-11-04T01:17:04;5;5;
60816;PMS5003;51921;51.518;-3.188;2022-11-04T01:19:30;5;5;
60816;PMS5003;51921;51.518;-3.188;2022-11-04T01:21:55;3;3;
60816;PMS5003;51921;51.518;-3.188;2022-11-04T01:24:21;6;5;
60816;PMS5003;51921;51.518;-3.188;2022-11-04T01:26:46;3;3;
60816;PMS5003;51921;51.518;-3.188;2022-11-04T01:29:12;4;3;
60816;PMS5003;51921;51.518;-3.188;2022-11-04T01:31:38;3;3;
60816;PMS5003;51921;51.518;-3.188;2022-11-04T01:34:03;3;3;
60816;PMS5003;51921;51.518;-3.188;2022-11-04T01:36:29;3;3;
60816;PMS5003;51921;51.518;-3.188;2022-11-04T01:38:54;2;2;
60816;PMS5003;51921;51.518;-3.188;2022-11-04T01:41:20;2;2;
60816;PMS5003;51921;51.518;-3.188;2022-11-04T01:43:48;4;3;
60816;PMS5003;51921;51.518;-3.188;2022-11-04T01:46:11;3;2;
60816;PMS5003;51921;51.518;-3.188;2022-11-04T01:48:36;4;3;
60816;PMS5003;51921;51.518;-3.188;2022-11-04T01:51:02;2;2;
60816;PMS5003;51921;51.518;-3.188;2022-11-04T01:53:28;1;1;
60816;PMS5003;51921;51.518;-3.188;2022-11-04T01:55:53;2;2;
60816;PMS5003;51921;51.518;-3.188;2022-11-04T01:58:19;1;1;
60816;PMS5003;51921;51.518;-3.188;2022-11-04T02:00:44;4;3;
60816;PMS5003;51921;51.518;-3.188;2022-11-04T02:03:10;1;1;
60816;PMS5003;51921;51.518;-3.188;2022-11-04T02:05:35;3;3;
60816;PMS5003;51921;51.518;-3.188;2022-11-04T02:08:01;2;2;
60816;PMS5003;51921;51.518;-3.188;2022-11-04T02:10:27;2;2;
60816;PMS5003;51921;51.518;-3.188;2022-11-04T02:12:52;1;1;
60816;PMS5003;51921;51.518;-3.188;2022-11-04T02:15:19;2;2;
60816;PMS5003;51921;51.518;-3.188;2022-11-04T02:17:49;1;1;
60816;PMS5003;51921;51.518;-3.188;2022-11-04T02:20:13;2;2;
60816;PMS5003;51921;51.518;-3.188;2022-11-04T02:22:39;5;5;
60816;PMS5003;51921;51.518;-3.188;2022-11-04T02:25:05;2;1;
60816;PMS5003;51921;51.518;-3.188;2022-11-04T02:27:28;1;1;
60816;PMS5003;51921;51.518;-3.188;2022-11-04T02:29:57;2;2;
60816;PMS5003;51921;51.518;-3.188;2022-11-04T02:32:18;1;1;
60816;PMS5003;51921;51.518;-3.188;2022-11-04T02:34:48;2;2;
60816;PMS5003;51921;51.518;-3.188;2022-11-04T02:37:10;3;3;
60816;PMS5003;51921;51.518;-3.188;2022-11-04T02:39:35;2;2;
60816;PMS5003;51921;51.518;-3.188;2022-11-04T02:42:00;2;2;
60816;PMS5003;51921;51.518;-3.188;2022-11-04T02:44:26;2;2;
60816;PMS5003;51921;51.518;-3.188;2022-11-04T02:46:50;0;0;
60816;PMS5003;51921;51.518;-3.188;2022-11-04T02:49:16;1;1;
60816;PMS5003;51921;51.518;-3.188;2022-11-04T02:51:42;2;1;
60816;PMS5003;51921;51.518;-3.188;2022-11-04T02:54:06;3;3;
60816;PMS5003;51921;51.518;-3.188;2022-11-04T02:56:32;1;1;
60816;PMS5003;51921;51.518;-3.188;2022-11-04T02:58:58;4;3;
60816;PMS5003;51921;51.518;-3.188;2022-11-04T03:01:23;2;2;
60816;PMS5003;51921;51.518;-3.188;2022-11-04T03:03:50;1;1;
60816;PMS5003;51921;51.518;-3.188;2022-11-04T03:06:14;0;0;
60816;PMS5003;51921;51.518;-3.188;2022-11-04T03:08:40;1;1;
60816;PMS5003;51921;51.518;-3.188;2022-11-04T03:11:05;2;2;
60816;PMS5003;51921;51.518;-3.188;2022-11-04T03:13:32;2;1;
60816;PMS5003;51921;51.518;-3.188;2022-11-04T03:15:57;1;1;
60816;PMS5003;51921;51.518;-3.188;2022-11-04T03:18:22;2;2;
60816;PMS5003;51921;51.518;-3.188;2022-11-04T03:20:47;1;1;
60816;PMS5003;51921;51.518;-3.188;2022-11-04T03:23:12;1;1;
60816;PMS5003;51921;51.518;-3.188;2022-11-04T03:25:38;2;2;
60816;PMS5003;51921;51.518;-3.188;2022-11-04T03:28:04;2;2;
60816;PMS5003;51921;51.518;-3.188;2022-11-04T03:30:30;1;1;
60816;PMS5003;51921;51.518;-3.188;2022-11-04T03:32:56;2;1;
60816;PMS5003;51921;51.518;-3.188;2022-11-04T03:35:19;2;2;
60816;PMS5003;51921;51.518;-3.188;2022-11-04T03:37:45;2;2;
60816;PMS5003;51921;51.518;-3.188;2022-11-04T03:40:11;1;1;
60816;PMS5003;51921;51.518;-3.188;2022-11-04T03:42:38;3;3;
60816;PMS5003;51921;51.518;-3.188;2022-11-04T03:45:02;5;4;
60816;PMS5003;51921;51.518;-3.188;2022-11-04T03:47:28;4;4;
60816;PMS5003;51921;51.518;-3.188;2022-11-04T03:49:54;4;4;
60816;PMS5003;51921;51.518;-3.188;2022-11-04T03:52:18;5;5;
60816;PMS5003;51921;51.518;-3.188;2022-11-04T03:54:44;7;7;
60816;PMS5003;51921;51.518;-3.188;2022-11-04T03:57:15;5;5;
60816;PMS5003;51921;51.518;-3.188;2022-11-04T03:59:39;5;4;
60816;PMS5003;51921;51.518;-3.188;2022-11-04T04:02:02;6;5;
60816;PMS5003;51921;51.518;-3.188;2022-11-04T04:04:27;5;5;
60816;PMS5003;51921;51.518;-3.188;2022-11-04T04:06:52;8;6;
60816;PMS5003;51921;51.518;-3.188;2022-11-04T04:09:18;4;4;
60816;PMS5003;51921;51.518;-3.188;2022-11-04T04:11:43;5;5;
60816;PMS5003;51921;51.518;-3.188;2022-11-04T04:14:11;5;5;
60816;PMS5003;51921;51.518;-3.188;2022-11-04T04:16:35;5;5;
60816;PMS5003;51921;51.518;-3.188;2022-11-04T04:19:00;6;6;
60816;PMS5003;51921;51.518;-3.188;2022-11-04T04:21:30;6;6;
60816;PMS5003;51921;51.518;-3.188;2022-11-04T04:23:51;7;7;
60816;PMS5003;51921;51.518;-3.188;2022-11-04T04:26:16;6;6;
60816;PMS5003;51921;51.518;-3.188;2022-11-04T04:28:42;7;6;
60816;PMS5003;51921;51.518;-3.188;2022-11-04T04:31:07;5;5;
60816;PMS5003;51921;51.518;-3.188;2022-11-04T04:33:33;6;6;
60816;PMS5003;51921;51.518;-3.188;2022-11-04T04:35:58;8;8;
60816;PMS5003;51921;51.518;-3.188;2022-11-04T04:38:25;7;6;
60816;PMS5003;51921;51.518;-3.188;2022-11-04T04:40:50;6;6;
60816;PMS5003;51921;51.518;-3.188;2022-11-04T04:43:15;6;6;
60816;PMS5003;51921;51.518;-3.188;2022-11-04T04:45:41;7;7;
60816;PMS5003;51921;51.518;-3.188;2022-11-04T04:48:06;8;7;
60816;PMS5003;51921;51.518;-3.188;2022-11-04T04:50:32;5;5;
60816;PMS5003;51921;51.518;-3.188;2022-11-04T04:52:57;7;6;
60816;PMS5003;51921;51.518;-3.188;2022-11-04T04:55:23;7;6;
60816;PMS5003;51921;51.518;-3.188;2022-11-04T04:57:48;5;4;
60816;PMS5003;51921;51.518;-3.188;2022-11-04T05:00:15;5;5;
60816;PMS5003;51921;51.518;-3.188;2022-11-04T05:02:39;6;6;
60816;PMS5003;51921;51.518;-3.188;2022-11-04T05:05:05;6;6;
60816;PMS5003;51921;51.518;-3.188;2022-11-04T05:07:30;7;6;
60816;PMS5003;51921;51.518;-3.188;2022-11-04T05:09:56;7;6;
60816;PMS5003;51921;51.518;-3.188;2022-11-04T05:12:21;7;6;
60816;PMS5003;51921;51.518;-3.188;2022-11-04T05:14:47;7;5;
60816;PMS5003;51921;51.518;-3.188;2022-11-04T05:17:13;6;6;
60816;PMS5003;51921;51.518;-3.188;2022-11-04T05:19:38;6;5;
60816;PMS5003;51921;51.518;-3.188;2022-11-04T05:22:03;6;5;
60816;PMS5003;51921;51.518;-3.188;2022-11-04T05:24:29;6;5;
60816;PMS5003;51921;51.518;-3.188;2022-11-04T05:26:55;4;4;
60816;PMS5003;51921;51.518;-3.188;2022-11-04T05:29:20;5;4;
60816;PMS5003;51921;51.518;-3.188;2022-11-04T05:31:46;4;3;
60816;PMS5003;51921;51.518;-3.188;2022-11-04T05:34:11;5;5;
60816;PMS5003;51921;51.518;-3.188;2022-11-04T05:36:37;5;5;
60816;PMS5003;51921;51.518;-3.188;2022-11-04T05:39:03;5;5;
60816;PMS5003;51921;51.518;-3.188;2022-11-04T05:41:28;5;5;
60816;PMS5003;51921;51.518;-3.188;2022-11-04T05:43:54;6;6;
60816;PMS5003;51921;51.518;-3.188;2022-11-04T05:46:19;7;7;
60816;PMS5003;51921;51.518;-3.188;2022-11-04T05:48:45;6;6;
60816;PMS5003;51921;51.518;-3.188;2022-11-04T05:51:11;6;5;
60816;PMS5003;51921;51.518;-3.188;2022-11-04T05:53:36;7;6;
60816;PMS5003;51921;51.518;-3.188;2022-11-04T05:56:01;5;5;
60816;PMS5003;51921;51.518;-3.188;2022-11-04T05:58:27;5;5;
60816;PMS5003;51921;51.518;-3.188;2022-11-04T06:00:52;5;5;
60816;PMS5003;51921;51.518;-3.188;2022-11-04T06:03:18;7;6;
60816;PMS5003;51921;51.518;-3.188;2022-11-04T06:05:43;6;6;
60816;PMS5003;51921;51.518;-3.188;2022-11-04T06:08:09;8;6;
60816;PMS5003;51921;51.518;-3.188;2022-11-04T06:10:35;6;5;
60816;PMS5003;51921;51.518;-3.188;2022-11-04T06:13:00;7;5;
60816;PMS5003;51921;51.518;-3.188;2022-11-04T06:15:26;6;6;
60816;PMS5003;51921;51.518;-3.188;2022-11-04T06:17:51;5;4;
60816;PMS5003;51921;51.518;-3.188;2022-11-04T06:20:17;4;4;
60816;PMS5003;51921;51.518;-3.188;2022-11-04T06:22:43;6;4;
60816;PMS5003;51921;51.518;-3.188;2022-11-04T06:25:08;4;4;
60816;PMS5003;51921;51.518;-3.188;2022-11-04T06:27:34;8;5;
60816;PMS5003;51921;51.518;-3.188;2022-11-04T06:29:59;6;5;
60816;PMS5003;51921;51.518;-3.188;2022-11-04T06:32:24;5;4;
60816;PMS5003;51921;51.518;-3.188;2022-11-04T06:34:50;4;4;
60816;PMS5003;51921;51.518;-3.188;2022-11-04T06:37:16;5;5;
60816;PMS5003;51921;51.518;-3.188;2022-11-04T06:39:41;5;4;
60816;PMS5003;51921;51.518;-3.188;2022-11-04T06:42:07;5;5;
60816;PMS5003;51921;51.518;-3.188;2022-11-04T06:44:32;5;5;
60816;PMS5003;51921;51.518;-3.188;2022-11-04T06:46:58;4;4;
60816;PMS5003;51921;51.518;-3.188;2022-11-04T06:49:24;7;5;
60816;PMS5003;51921;51.518;-3.188;2022-11-04T06:51:49;5;5;
60816;PMS5003;51921;51.518;-3.188;2022-11-04T06:54:15;7;7;
60816;PMS5003;51921;51.518;-3.188;2022-11-04T06:56:41;6;6;
60816;PMS5003;51921;51.518;-3.188;2022-11-04T06:59:06;5;5;
60816;PMS5003;51921;51.518;-3.188;2022-11-04T07:01:33;5;4;
60816;PMS5003;51921;51.518;-3.188;2022-11-04T07:03:58;6;6;
60816;PMS5003;51921;51.518;-3.188;2022-11-04T07:06:22;6;6;
60816;PMS5003;51921;51.518;-3.188;2022-11-04T07:08:48;6;6;
60816;PMS5003;51921;51.518;-3.188;2022-11-04T07:11:13;6;5;
60816;PMS5003;51921;51.518;-3.188;2022-11-04T07:13:39;3;3;
60816;PMS5003;51921;51.518;-3.188;2022-11-04T07:16:05;4;3;
60816;PMS5003;51921;51.518;-3.188;2022-11-04T07:18:30;5;4;
60816;PMS5003;51921;51.518;-3.188;2022-11-04T07:20:56;3;2;
60816;PMS5003;51921;51.518;-3.188;2022-11-04T07:23:22;3;3;
60816;PMS5003;51921;51.518;-3.188;2022-11-04T07:25:47;2;2;
60816;PMS5003;51921;51.518;-3.188;2022-11-04T07:28:12;4;4;
60816;PMS5003;51921;51.518;-3.188;2022-11-04T07:30:38;4;4;
60816;PMS5003;51921;51.518;-3.188;2022-11-04T07:33:03;6;5;
60816;PMS5003;51921;51.518;-3.188;2022-11-04T07:35:29;6;6;
60816;PMS5003;51921;51.518;-3.188;2022-11-04T07:37:55;5;5;
60816;PMS5003;51921;51.518;-3.188;2022-11-04T07:40:20;5;4;
60816;PMS5003;51921;51.518;-3.188;2022-11-04T07:42:46;2;2;
60816;PMS5003;51921;51.518;-3.188;2022-11-04T07:45:11;2;2;
60816;PMS5003;51921;51.518;-3.188;2022-11-04T07:47:37;4;3;
60816;PMS5003;51921;51.518;-3.188;2022-11-04T07:50:03;3;3;
60816;PMS5003;51921;51.518;-3.188;2022-11-04T07:52:28;2;2;
60816;PMS5003;51921;51.518;-3.188;2022-11-04T07:54:53;1;1;
60816;PMS5003;51921;51.518;-3.188;2022-11-04T07:57:19;3;2;
60816;PMS5003;51921;51.518;-3.188;2022-11-04T07:59:45;4;3;
60816;PMS5003;51921;51.518;-3.188;2022-11-04T08:02:10;5;4;
60816;PMS5003;51921;51.518;-3.188;2022-11-04T08:04:36;3;3;
60816;PMS5003;51921;51.518;-3.188;2022-11-04T08:07:02;3;2;
60816;PMS5003;51921;51.518;-3.188;2022-11-04T08:09:27;5;3;
60816;PMS5003;51921;51.518;-3.188;2022-11-04T08:11:53;3;3;
60816;PMS5003;51921;51.518;-3.188;2022-11-04T08:14:23;3;3;
60816;PMS5003;51921;51.518;-3.188;2022-11-04T08:16:44;3;3;
60816;PMS5003;51921;51.518;-3.188;2022-11-04T08:19:09;3;2;
60816;PMS5003;51921;51.518;-3.188;2022-11-04T08:21:35;1;1;
60816;PMS5003;51921;51.518;-3.188;2022-11-04T08:24:00;3;3;
60816;PMS5003;51921;51.518;-3.188;2022-11-04T08:26:26;2;2;
60816;PMS5003;51921;51.518;-3.188;2022-11-04T08:28:51;3;2;
60816;PMS5003;51921;51.518;-3.188;2022-11-04T08:31:17;3;2;
60816;PMS5003;51921;51.518;-3.188;2022-11-04T08:33:42;2;2;
60816;PMS5003;51921;51.518;-3.188;2022-11-04T08:36:09;3;3;
60816;PMS5003;51921;51.518;-3.188;2022-11-04T08:38:34;2;2;
60816;PMS5003;51921;51.518;-3.188;2022-11-04T08:40:59;4;3;
60816;PMS5003;51921;51.518;-3.188;2022-11-04T08:43:25;2;2;
60816;PMS5003;51921;51.518;-3.188;2022-11-04T08:45:50;2;2;
60816;PMS5003;51921;51.518;-3.188;2022-11-04T08:48:16;2;1;
60816;PMS5003;51921;51.518;-3.188;2022-11-04T08:50:42;3;3;
60816;PMS5003;51921;51.518;-3.188;2022-11-04T08:53:07;3;2;
60816;PMS5003;51921;51.518;-3.188;2022-11-04T08:55:32;1;1;
60816;PMS5003;51921;51.518;-3.188;2022-11-04T08:57:58;4;3;
60816;PMS5003;51921;51.518;-3.188;2022-11-04T09:00:23;2;2;
60816;PMS5003;51921;51.518;-3.188;2022-11-04T09:02:48;3;3;
60816;PMS5003;51921;51.518;-3.188;2022-11-04T09:05:14;1;1;
60816;PMS5003;51921;51.518;-3.188;2022-11-04T09:07:40;3;2;
60816;PMS5003;51921;51.518;-3.188;2022-11-04T09:10:05;2;2;
60816;PMS5003;51921;51.518;-3.188;2022-11-04T09:12:30;3;2;
60816;PMS5003;51921;51.518;-3.188;2022-11-04T09:14:56;2;1;
60816;PMS5003;51921;51.518;-3.188;2022-11-04T09:17:21;2;2;
60816;PMS5003;51921;51.518;-3.188;2022-11-04T09:19:47;2;2;
60816;PMS5003;51921;51.518;-3.188;2022-11-04T09:22:12;1;1;
60816;PMS5003;51921;51.518;-3.188;2022-11-04T09:24:38;0;0;
60816;PMS5003;51921;51.518;-3.188;2022-11-04T09:27:04;2;1;
60816;PMS5003;51921;51.518;-3.188;2022-11-04T09:29:29;1;1;
60816;PMS5003;51921;51.518;-3.188;2022-11-04T09:31:54;0;0;
60816;PMS5003;51921;51.518;-3.188;2022-11-04T09:34:20;0;0;
60816;PMS5003;51921;51.518;-3.188;2022-11-04T09:36:45;2;2;
60816;PMS5003;51921;51.518;-3.188;2022-11-04T09:39:11;3;2;
60816;PMS5003;51921;51.518;-3.188;2022-11-04T09:41:42;2;1;
60816;PMS5003;51921;51.518;-3.188;2022-11-04T09:44:03;2;1;
60816;PMS5003;51921;51.518;-3.188;2022-11-04T09:46:28;2;1;
60816;PMS5003;51921;51.518;-3.188;2022-11-04T09:48:53;2;1;
60816;PMS5003;51921;51.518;-3.188;2022-11-04T09:51:19;4;1;
60816;PMS5003;51921;51.518;-3.188;2022-11-04T09:53:45;1;1;
60816;PMS5003;51921;51.518;-3.188;2022-11-04T09:56:12;2;1;
60816;PMS5003;51921;51.518;-3.188;2022-11-04T09:58:36;2;2;
60816;PMS5003;51921;51.518;-3.188;2022-11-04T10:01:02;5;3;
60816;PMS5003;51921;51.518;-3.188;2022-11-04T10:03:31;1;1;
60816;PMS5003;51921;51.518;-3.188;2022-11-04T10:05:55;4;3;
60816;PMS5003;51921;51.518;-3.188;2022-11-04T10:08:22;2;2;
60816;PMS5003;51921;51.518;-3.188;2022-11-04T10:10:44;4;3;
60816;PMS5003;51921;51.518;-3.188;2022-11-04T10:13:13;3;2;
60816;PMS5003;51921;51.518;-3.188;2022-11-04T10:15:37;2;2;
60816;PMS5003;51921;51.518;-3.188;2022-11-04T10:18:03;2;2;
60816;PMS5003;51921;51.518;-3.188;2022-11-04T10:20:29;3;2;
60816;PMS5003;51921;51.518;-3.188;2022-11-04T10:22:54;3;3;
60816;PMS5003;51921;51.518;-3.188;2022-11-04T10:25:19;4;3;
60816;PMS5003;51921;51.518;-3.188;2022-11-04T10:27:41;4;2;
60816;PMS5003;51921;51.518;-3.188;2022-11-04T10:30:13;4;4;
60816;PMS5003;51921;51.518;-3.188;2022-11-04T10:32:34;3;3;
60816;PMS5003;51921;51.518;-3.188;2022-11-04T10:34:58;4;4;
60816;PMS5003;51921;51.518;-3.188;2022-11-04T10:37:23;4;3;
60816;PMS5003;51921;51.518;-3.188;2022-11-04T10:39:48;3;2;
60816;PMS5003;51921;51.518;-3.188;2022-11-04T10:42:15;5;4;
60816;PMS5003;51921;51.518;-3.188;2022-11-04T10:44:39;2;2;
60816;PMS5003;51921;51.518;-3.188;2022-11-04T10:47:09;4;4;
60816;PMS5003;51921;51.518;-3.188;2022-11-04T10:49:38;4;4;
60816;PMS5003;51921;51.518;-3.188;2022-11-04T10:51:55;3;3;
60816;PMS5003;51921;51.518;-3.188;2022-11-04T10:54:21;4;3;
60816;PMS5003;51921;51.518;-3.188;2022-11-04T10:56:48;4;3;
60816;PMS5003;51921;51.518;-3.188;2022-11-04T10:59:16;5;5;
60816;PMS5003;51921;51.518;-3.188;2022-11-04T11:01:37;1;1;
60816;PMS5003;51921;51.518;-3.188;2022-11-04T11:04:05;3;3;
60816;PMS5003;51921;51.518;-3.188;2022-11-04T11:06:29;4;3;
60816;PMS5003;51921;51.518;-3.188;2022-11-04T11:08:54;5;4;
60816;PMS5003;51921;51.518;-3.188;2022-11-04T11:13:45;1;1;
60816;PMS5003;51921;51.518;-3.188;2022-11-04T11:16:11;4;3;
60816;PMS5003;51921;51.518;-3.188;2022-11-04T11:18:36;2;1;
60816;PMS5003;51921;51.518;-3.188;2022-11-04T11:21:04;2;2;
60816;PMS5003;51921;51.518;-3.188;2022-11-04T11:23:33;2;2;
60816;PMS5003;51921;51.518;-3.188;2022-11-04T11:25:52;4;4;
60816;PMS5003;51921;51.518;-3.188;2022-11-04T11:28:20;2;2;
60816;PMS5003;51921;51.518;-3.188;2022-11-04T11:33:14;3;3;
60816;PMS5003;51921;51.518;-3.188;2022-11-04T11:35:34;3;2;
60816;PMS5003;51921;51.518;-3.188;2022-11-04T11:37:59;2;2;
60816;PMS5003;51921;51.518;-3.188;2022-11-04T11:40:25;2;2;
60816;PMS5003;51921;51.518;-3.188;2022-11-04T11:42:50;3;3;
60816;PMS5003;51921;51.518;-3.188;2022-11-04T11:45:15;2;2;
60816;PMS5003;51921;51.518;-3.188;2022-11-04T11:47:41;2;1;
60816;PMS5003;51921;51.518;-3.188;2022-11-04T11:50:13;2;2;
60816;PMS5003;51921;51.518;-3.188;2022-11-04T11:52:33;3;3;
60816;PMS5003;51921;51.518;-3.188;2022-11-04T11:55:00;3;3;
60816;PMS5003;51921;51.518;-3.188;2022-11-04T11:57:27;3;2;
60816;PMS5003;51921;51.518;-3.188;2022-11-04T11:59:49;2;1;
60816;PMS5003;51921;51.518;-3.188;2022-11-04T12:02:21;1;1;
60816;PMS5003;51921;51.518;-3.188;2022-11-04T12:04:39;2;1;
60816;PMS5003;51921;51.518;-3.188;2022-11-04T12:07:05;1;1;
60816;PMS5003;51921;51.518;-3.188;2022-11-04T12:09:32;2;1;
60816;PMS5003;51921;51.518;-3.188;2022-11-04T12:12:00;0;0;
60816;PMS5003;51921;51.518;-3.188;2022-11-04T12:14:22;2;1;
60816;PMS5003;51921;51.518;-3.188;2022-11-04T12:16:49;2;1;
60816;PMS5003;51921;51.518;-3.188;2022-11-04T12:19:22;2;2;
60816;PMS5003;51921;51.518;-3.188;2022-11-04T12:21:38;1;1;
60816;PMS5003;51921;51.518;-3.188;2022-11-04T12:24:04;1;1;
60816;PMS5003;51921;51.518;-3.188;2022-11-04T12:26:30;3;2;
60816;PMS5003;51921;51.518;-3.188;2022-11-04T12:28:58;2;2;
60816;PMS5003;51921;51.518;-3.188;2022-11-04T12:31:21;0;0;
60816;PMS5003;51921;51.518;-3.188;2022-11-04T12:33:46;2;1;
60816;PMS5003;51921;51.518;-3.188;2022-11-04T12:36:14;0;0;
60816;PMS5003;51921;51.518;-3.188;2022-11-04T12:38:39;0;0;
60816;PMS5003;51921;51.518;-3.188;2022-11-04T12:41:03;0;0;
60816;PMS5003;51921;51.518;-3.188;2022-11-04T12:43:28;1;0;
60816;PMS5003;51921;51.518;-3.188;2022-11-04T12:45:55;2;2;
60816;PMS5003;51921;51.518;-3.188;2022-11-04T12:48:21;2;1;
60816;PMS5003;51921;51.518;-3.188;2022-11-04T12:50:47;2;1;
60816;PMS5003;51921;51.518;-3.188;2022-11-04T12:53:20;1;1;
60816;PMS5003;51921;51.518;-3.188;2022-11-04T12:55:36;1;1;
60816;PMS5003;51921;51.518;-3.188;2022-11-04T12:58:01;1;1;
60816;PMS5003;51921;51.518;-3.188;2022-11-04T13:00:24;1;0;
60816;PMS5003;51921;51.518;-3.188;2022-11-04T13:02:50;1;1;
60816;PMS5003;51921;51.518;-3.188;2022-11-04T13:05:23;1;0;
60816;PMS5003;51921;51.518;-3.188;2022-11-04T13:07:41;0;0;
60816;PMS5003;51921;51.518;-3.188;2022-11-04T13:10:08;0;0;
60816;PMS5003;51921;51.518;-3.188;2022-11-04T13:12:31;0;0;
60816;PMS5003;51921;51.518;-3.188;2022-11-04T13:14:58;0;0;
60816;PMS5003;51921;51.518;-3.188;2022-11-04T13:17:23;2;1;
60816;PMS5003;51921;51.518;-3.188;2022-11-04T13:19:48;0;0;
60816;PMS5003;51921;51.518;-3.188;2022-11-04T13:22:14;1;1;
60816;PMS5003;51921;51.518;-3.188;2022-11-04T13:24:39;0;0;
60816;PMS5003;51921;51.518;-3.188;2022-11-04T13:27:08;0;0;
60816;PMS5003;51921;51.518;-3.188;2022-11-04T13:29:29;1;1;
60816;PMS5003;51921;51.518;-3.188;2022-11-04T13:31:56;1;0;
60816;PMS5003;51921;51.518;-3.188;2022-11-04T13:34:23;0;0;
60816;PMS5003;51921;51.518;-3.188;2022-11-04T13:36:46;0;0;
60816;PMS5003;51921;51.518;-3.188;2022-11-04T13:39:14;0;0;
60816;PMS5003;51921;51.518;-3.188;2022-11-04T13:41:39;1;0;
60816;PMS5003;51921;51.518;-3.188;2022-11-04T13:44:02;0;0;
60816;PMS5003;51921;51.518;-3.188;2022-11-04T13:46:28;1;0;
60816;PMS5003;51921;51.518;-3.188;2022-11-04T13:48:55;0;0;
60816;PMS5003;51921;51.518;-3.188;2022-11-04T13:51:18;0;0;
60816;PMS5003;51921;51.518;-3.188;2022-11-04T13:53:44;2;1;
60816;PMS5003;51921;51.518;-3.188;2022-11-04T13:56:09;0;0;
60816;PMS5003;51921;51.518;-3.188;2022-11-04T13:58:34;0;0;
60816;PMS5003;51921;51.518;-3.188;2022-11-04T14:06:00;0;0;
60816;PMS5003;51921;51.518;-3.188;2022-11-04T14:08:16;1;0;
60816;PMS5003;51921;51.518;-3.188;2022-11-04T14:10:42;0;0;
60816;PMS5003;51921;51.518;-3.188;2022-11-04T14:17:58;1;1;
60816;PMS5003;51921;51.518;-3.188;2022-11-04T14:20:24;0;0;
60816;PMS5003;51921;51.518;-3.188;2022-11-04T14:22:49;0;0;
60816;PMS5003;51921;51.518;-3.188;2022-11-04T14:25:19;1;1;
60816;PMS5003;51921;51.518;-3.188;2022-11-04T14:27:39;1;0;
60816;PMS5003;51921;51.518;-3.188;2022-11-04T14:30:05;1;1;
60816;PMS5003;51921;51.518;-3.188;2022-11-04T14:32:32;1;0;
60816;PMS5003;51921;51.518;-3.188;2022-11-04T14:34:57;1;0;
60816;PMS5003;51921;51.518;-3.188;2022-11-04T14:37:21;0;0;
60816;PMS5003;51921;51.518;-3.188;2022-11-04T14:39:51;1;1;
60816;PMS5003;51921;51.518;-3.188;2022-11-04T14:42:12;0;0;
60816;PMS5003;51921;51.518;-3.188;2022-11-04T14:44:41;0;0;
60816;PMS5003;51921;51.518;-3.188;2022-11-04T14:49:31;0;0;
60816;PMS5003;51921;51.518;-3.188;2022-11-04T14:51:54;1;1;
60816;PMS5003;51921;51.518;-3.188;2022-11-04T14:54:20;1;1;
60816;PMS5003;51921;51.518;-3.188;2022-11-04T14:56:45;0;0;
60816;PMS5003;51921;51.518;-3.188;2022-11-04T14:59:15;0;0;
60816;PMS5003;51921;51.518;-3.188;2022-11-04T15:01:36;1;1;
60816;PMS5003;51921;51.518;-3.188;2022-11-04T15:04:05;0;0;
60816;PMS5003;51921;51.518;-3.188;2022-11-04T15:06:28;1;1;
60816;PMS5003;51921;51.518;-3.188;2022-11-04T15:08:52;1;1;
60816;PMS5003;51921;51.518;-3.188;2022-11-04T15:11:18;3;2;
60816;PMS5003;51921;51.518;-3.188;2022-11-04T15:13:43;0;0;
60816;PMS5003;51921;51.518;-3.188;2022-11-04T15:16:09;0;0;
60816;PMS5003;51921;51.518;-3.188;2022-11-04T15:18:35;1;1;
60816;PMS5003;51921;51.518;-3.188;2022-11-04T15:20:59;0;0;
60816;PMS5003;51921;51.518;-3.188;2022-11-04T15:23:26;1;1;
60816;PMS5003;51921;51.518;-3.188;2022-11-04T15:25:50;1;1;
60816;PMS5003;51921;51.518;-3.188;2022-11-04T15:28:17;0;0;
60816;PMS5003;51921;51.518;-3.188;2022-11-04T15:30:41;0;0;
60816;PMS5003;51921;51.518;-3.188;2022-11-04T15:33:13;1;1;
60816;PMS5003;51921;51.518;-3.188;2022-11-04T15:35:31;1;1;
60816;PMS5003;51921;51.518;-3.188;2022-11-04T15:37:58;0;0;
60816;PMS5003;51921;51.518;-3.188;2022-11-04T15:40:22;0;0;
60816;PMS5003;51921;51.518;-3.188;2022-11-04T15:42:47;1;1;
60816;PMS5003;51921;51.518;-3.188;2022-11-04T15:47:38;0;0;
60816;PMS5003;51921;51.518;-3.188;2022-11-04T15:50:15;1;1;
60816;PMS5003;51921;51.518;-3.188;2022-11-04T15:52:29;1;1;
60816;PMS5003;51921;51.518;-3.188;2022-11-04T15:54:55;1;1;
60816;PMS5003;51921;51.518;-3.188;2022-11-04T15:57:21;3;2;
60816;PMS5003;51921;51.518;-3.188;2022-11-04T15:59:48;1;1;
60816;PMS5003;51921;51.518;-3.188;2022-11-04T16:02:16;1;1;
60816;PMS5003;51921;51.518;-3.188;2022-11-04T16:04:36;1;1;
60816;PMS5003;51921;51.518;-3.188;2022-11-04T16:07:04;2;2;
60816;PMS5003;51921;51.518;-3.188;2022-11-04T16:09:27;1;1;
60816;PMS5003;51921;51.518;-3.188;2022-11-04T16:14:20;1;1;
60816;PMS5003;51921;51.518;-3.188;2022-11-04T16:16:44;1;0;
60816;PMS5003;51921;51.518;-3.188;2022-11-04T16:19:12;2;2;
60816;PMS5003;51921;51.518;-3.188;2022-11-04T16:21:35;3;3;
60816;PMS5003;51921;51.518;-3.188;2022-11-04T16:24:01;3;3;
60816;PMS5003;51921;51.518;-3.188;2022-11-04T16:26:26;4;3;
60816;PMS5003;51921;51.518;-3.188;2022-11-04T16:28:52;2;2;
60816;PMS5003;51921;51.518;-3.188;2022-11-04T16:33:42;2;2;
60816;PMS5003;51921;51.518;-3.188;2022-11-04T16:36:09;2;2;
60816;PMS5003;51921;51.518;-3.188;2022-11-04T16:38:33;7;6;
60816;PMS5003;51921;51.518;-3.188;2022-11-04T16:40:58;9;8;
60816;PMS5003;51921;51.518;-3.188;2022-11-04T16:43:24;9;7;
60816;PMS5003;51921;51.518;-3.188;2022-11-04T16:45:49;7;6;